sensor_id;sensor_type;location;lat;lon;timestamp;temperature;humidity
33460;DHT22;19795;53.160;6.612;2022-11-15T04:43:10;7.80;99.90
33460;DHT22;19795;53.160;6.612;2022-11-15T04:45:36;7.80;99.90
33460;DHT22;19795;53.160;6.612;2022-11-15T04:50:37;7.80;99.90
33460;DHT22;19795;53.160;6.612;2022-11-15T04:53:02;7.90;99.90
33460;DHT22;19795;53.160;6.612;2022-11-15T04:55:28;7.90;99.90
33460;DHT22;19795;53.160;6.612;2022-11-15T04:58:00;7.90;99.90
33460;DHT22;19795;53.160;6.612;2022-11-15T05:00:27;7.90;99.90
33460;DHT22;19795;53.160;6.612;2022-11-15T05:02:53;8.00;99.90
33460;DHT22;19795;53.160;6.612;2022-11-15T05:05:37;8.10;99.90
33460;DHT22;19795;53.160;6.612;2022-11-15T05:08:03;8.00;99.90
33460;DHT22;19795;53.160;6.612;2022-11-15T05:10:29;8.00;99.90
33460;DHT22;19795;53.160;6.612;2022-11-15T05:12:55;8.00;99.90
33460;DHT22;19795;53.160;6.612;2022-11-15T05:15:21;8.10;99.90
33460;DHT22;19795;53.160;6.612;2022-11-15T05:17:46;8.10;99.90
33460;DHT22;19795;53.160;6.612;2022-11-15T05:20:12;8.10;99.90
33460;DHT22;19795;53.160;6.612;2022-11-15T05:22:39;8.10;99.90
33460;DHT22;19795;53.160;6.612;2022-11-15T05:25:05;8.20;99.90
33460;DHT22;19795;53.160;6.612;2022-11-15T05:27:31;8.20;99.90
33460;DHT22;19795;53.160;6.612;2022-11-15T05:29:56;8.30;99.90
33460;DHT22;19795;53.160;6.612;2022-11-15T05:32:22;8.30;99.90
33460;DHT22;19795;53.160;6.612;2022-11-15T05:34:48;8.30;99.90
33460;DHT22;19795;53.160;6.612;2022-11-15T05:37:14;8.40;99.90
33460;DHT22;19795;53.160;6.612;2022-11-15T05:39:41;8.40;99.90
33460;DHT22;19795;53.160;6.612;2022-11-15T05:42:10;8.40;99.90
33460;DHT22;19795;53.160;6.612;2022-11-15T05:44:37;8.50;99.90
33460;DHT22;19795;53.160;6.612;2022-11-15T05:47:08;8.60;99.90
33460;DHT22;19795;53.160;6.612;2022-11-15T05:49:36;8.80;99.90
33460;DHT22;19795;53.160;6.612;2022-11-15T05:52:05;8.80;99.90
33460;DHT22;19795;53.160;6.612;2022-11-15T05:54:32;8.70;99.90
33460;DHT22;19795;53.160;6.612;2022-11-15T05:56:58;8.60;99.90
33460;DHT22;19795;53.160;6.612;2022-11-15T05:59:25;8.70;99.90
33460;DHT22;19795;53.160;6.612;2022-11-15T06:01:53;8.80;99.90
33460;DHT22;19795;53.160;6.612;2022-11-15T06:04:19;8.80;99.90
33460;DHT22;19795;53.160;6.612;2022-11-15T06:06:44;8.90;99.90
33460;DHT22;19795;53.160;6.612;2022-11-15T06:09:10;8.80;99.90
33460;DHT22;19795;53.160;6.612;2022-11-15T06:11:36;9.00;99.90
33460;DHT22;19795;53.160;6.612;2022-11-15T06:14:02;8.90;99.90
33460;DHT22;19795;53.160;6.612;2022-11-15T06:16:27;9.00;99.90
33460;DHT22;19795;53.160;6.612;2022-11-15T06:18:53;9.00;99.90
33460;DHT22;19795;53.160;6.612;2022-11-15T06:21:19;9.00;99.90
33460;DHT22;19795;53.160;6.612;2022-11-15T06:23:44;9.10;99.90
33460;DHT22;19795;53.160;6.612;2022-11-15T06:26:10;9.10;99.90
33460;DHT22;19795;53.160;6.612;2022-11-15T06:28:35;9.30;99.90
33460;DHT22;19795;53.160;6.612;2022-11-15T06:31:09;9.30;99.90
33460;DHT22;19795;53.160;6.612;2022-11-15T06:33:36;9.30;99.90
33460;DHT22;19795;53.160;6.612;2022-11-15T06:36:04;9.40;99.90
33460;DHT22;19795;53.160;6.612;2022-11-15T06:38:30;9.40;99.90
33460;DHT22;19795;53.160;6.612;2022-11-15T06:41:04;9.40;99.90
33460;DHT22;19795;53.160;6.612;2022-11-15T06:43:30;9.60;99.90
33460;DHT22;19795;53.160;6.612;2022-11-15T06:45:58;9.60;99.90
33460;DHT22;19795;53.160;6.612;2022-11-15T06:48:25;9.50;99.90
33460;DHT22;19795;53.160;6.612;2022-11-15T06:50:55;9.50;99.90
33460;DHT22;19795;53.160;6.612;2022-11-15T06:53:21;9.60;99.90
33460;DHT22;19795;53.160;6.612;2022-11-15T06:55:46;9.60;99.90
33460;DHT22;19795;53.160;6.612;2022-11-15T06:58:12;9.60;99.90
33460;DHT22;19795;53.160;6.612;2022-11-15T07:00:38;9.70;99.90
33460;DHT22;19795;53.160;6.612;2022-11-15T07:03:03;9.60;99.90
33460;DHT22;19795;53.160;6.612;2022-11-15T07:05:30;9.70;99.90
33460;DHT22;19795;53.160;6.612;2022-11-15T07:07:56;9.70;99.90
33460;DHT22;19795;53.160;6.612;2022-11-15T07:10:23;9.70;99.90
33460;DHT22;19795;53.160;6.612;2022-11-15T07:12:53;9.80;99.90
33460;DHT22;19795;53.160;6.612;2022-11-15T07:15:21;9.80;99.90
33460;DHT22;19795;53.160;6.612;2022-11-15T07:17:47;9.80;99.90
33460;DHT22;19795;53.160;6.612;2022-11-15T07:20:14;9.80;99.90
33460;DHT22;19795;53.160;6.612;2022-11-15T07:22:40;9.90;99.90
33460;DHT22;19795;53.160;6.612;2022-11-15T07:25:07;9.90;99.90
33460;DHT22;19795;53.160;6.612;2022-11-15T07:27:33;9.90;99.90
33460;DHT22;19795;53.160;6.612;2022-11-15T07:29:59;9.90;99.90
33460;DHT22;19795;53.160;6.612;2022-11-15T07:32:24;10.00;99.90
33460;DHT22;19795;53.160;6.612;2022-11-15T07:34:50;10.00;99.90
33460;DHT22;19795;53.160;6.612;2022-11-15T07:37:16;9.90;99.90
33460;DHT22;19795;53.160;6.612;2022-11-15T07:39:42;10.00;99.90
33460;DHT22;19795;53.160;6.612;2022-11-15T07:42:08;9.90;99.90
33460;DHT22;19795;53.160;6.612;2022-11-15T07:44:52;10.10;99.90
33460;DHT22;19795;53.160;6.612;2022-11-15T07:47:18;10.10;99.90
33460;DHT22;19795;53.160;6.612;2022-11-15T07:49:44;10.20;99.90
33460;DHT22;19795;53.160;6.612;2022-11-15T07:52:11;10.10;99.90
33460;DHT22;19795;53.160;6.612;2022-11-15T07:54:37;10.20;99.90
33460;DHT22;19795;53.160;6.612;2022-11-15T07:57:03;10.20;99.90
33460;DHT22;19795;53.160;6.612;2022-11-15T07:59:29;10.30;99.90
33460;DHT22;19795;53.160;6.612;2022-11-15T08:01:54;10.20;99.90
33460;DHT22;19795;53.160;6.612;2022-11-15T08:04:20;10.40;99.90
33460;DHT22;19795;53.160;6.612;2022-11-15T08:06:46;10.40;99.90
33460;DHT22;19795;53.160;6.612;2022-11-15T08:09:11;10.40;99.90
33460;DHT22;19795;53.160;6.612;2022-11-15T08:11:37;10.40;99.90
33460;DHT22;19795;53.160;6.612;2022-11-15T08:14:03;10.40;99.90
33460;DHT22;19795;53.160;6.612;2022-11-15T08:16:28;10.50;99.90
33460;DHT22;19795;53.160;6.612;2022-11-15T08:18:54;10.50;99.90
33460;DHT22;19795;53.160;6.612;2022-11-15T08:21:21;10.60;99.90
33460;DHT22;19795;53.160;6.612;2022-11-15T08:23:47;10.60;99.90
33460;DHT22;19795;53.160;6.612;2022-11-15T08:26:12;11.00;99.90
33460;DHT22;19795;53.160;6.612;2022-11-15T08:28:38;10.70;99.90
33460;DHT22;19795;53.160;6.612;2022-11-15T08:31:04;10.60;99.90
33460;DHT22;19795;53.160;6.612;2022-11-15T08:33:31;10.80;99.90
33460;DHT22;19795;53.160;6.612;2022-11-15T08:35:57;10.90;99.90
33460;DHT22;19795;53.160;6.612;2022-11-15T08:38:23;10.90;99.90
33460;DHT22;19795;53.160;6.612;2022-11-15T08:40:51;10.90;99.90
33460;DHT22;19795;53.160;6.612;2022-11-15T08:43:17;10.90;99.90
33460;DHT22;19795;53.160;6.612;2022-11-15T08:45:42;10.90;99.90
33460;DHT22;19795;53.160;6.612;2022-11-15T08:48:08;10.90;99.90
33460;DHT22;19795;53.160;6.612;2022-11-15T08:50:34;11.00;99.90
33460;DHT22;19795;53.160;6.612;2022-11-15T08:53:10;11.00;99.90
33460;DHT22;19795;53.160;6.612;2022-11-15T08:55:37;11.00;99.90
33460;DHT22;19795;53.160;6.612;2022-11-15T08:58:03;11.00;99.90
33460;DHT22;19795;53.160;6.612;2022-11-15T09:00:29;11.10;99.90
33460;DHT22;19795;53.160;6.612;2022-11-15T09:02:54;11.20;99.90
33460;DHT22;19795;53.160;6.612;2022-11-15T09:05:20;11.30;99.90
33460;DHT22;19795;53.160;6.612;2022-11-15T09:07:46;11.40;99.90
33460;DHT22;19795;53.160;6.612;2022-11-15T09:10:11;11.50;99.90
33460;DHT22;19795;53.160;6.612;2022-11-15T09:12:37;11.40;99.90
33460;DHT22;19795;53.160;6.612;2022-11-15T09:15:04;11.40;99.90
33460;DHT22;19795;53.160;6.612;2022-11-15T09:17:30;11.50;99.90
33460;DHT22;19795;53.160;6.612;2022-11-15T09:19:55;11.60;99.90
33460;DHT22;19795;53.160;6.612;2022-11-15T09:22:21;11.60;99.90
33460;DHT22;19795;53.160;6.612;2022-11-15T09:24:47;11.70;99.90
33460;DHT22;19795;53.160;6.612;2022-11-15T09:27:12;11.60;99.90
33460;DHT22;19795;53.160;6.612;2022-11-15T09:29:38;11.60;99.90
33460;DHT22;19795;53.160;6.612;2022-11-15T09:32:04;11.60;99.90
33460;DHT22;19795;53.160;6.612;2022-11-15T09:34:30;11.60;99.90
33460;DHT22;19795;53.160;6.612;2022-11-15T09:36:55;11.70;99.90
33460;DHT22;19795;53.160;6.612;2022-11-15T09:39:21;11.70;99.90
33460;DHT22;19795;53.160;6.612;2022-11-15T09:42:12;11.60;99.90
33460;DHT22;19795;53.160;6.612;2022-11-15T09:45:10;11.80;99.90
33460;DHT22;19795;53.160;6.612;2022-11-15T09:50:14;11.90;99.90
33460;DHT22;19795;53.160;6.612;2022-11-15T09:52:44;12.00;99.90
33460;DHT22;19795;53.160;6.612;2022-11-15T09:55:11;12.00;99.90
33460;DHT22;19795;53.160;6.612;2022-11-15T10:00:30;12.00;99.90
33460;DHT22;19795;53.160;6.612;2022-11-15T10:03:13;11.90;99.90
33460;DHT22;19795;53.160;6.612;2022-11-15T10:05:48;11.90;99.90
33460;DHT22;19795;53.160;6.612;2022-11-15T10:11:19;11.90;99.90
33460;DHT22;19795;53.160;6.612;2022-11-15T10:13:47;12.00;99.90
33460;DHT22;19795;53.160;6.612;2022-11-15T10:19:09;12.00;99.90
33460;DHT22;19795;53.160;6.612;2022-11-15T10:24:27;12.10;99.90
33460;DHT22;19795;53.160;6.612;2022-11-15T10:26:56;12.10;99.90
33460;DHT22;19795;53.160;6.612;2022-11-15T10:29:24;12.10;99.90
33460;DHT22;19795;53.160;6.612;2022-11-15T10:31:50;12.30;99.90
33460;DHT22;19795;53.160;6.612;2022-11-15T10:34:21;12.30;99.90
33460;DHT22;19795;53.160;6.612;2022-11-15T10:36:55;12.30;99.90
33460;DHT22;19795;53.160;6.612;2022-11-15T10:39:21;12.20;99.90
33460;DHT22;19795;53.160;6.612;2022-11-15T10:41:47;12.20;99.90
33460;DHT22;19795;53.160;6.612;2022-11-15T10:46:42;12.10;99.90
33460;DHT22;19795;53.160;6.612;2022-11-15T10:49:14;12.20;99.90
33460;DHT22;19795;53.160;6.612;2022-11-15T10:52:09;12.00;99.90
33460;DHT22;19795;53.160;6.612;2022-11-15T10:56:59;12.00;99.90
33460;DHT22;19795;53.160;6.612;2022-11-15T10:59:33;11.90;99.90
33460;DHT22;19795;53.160;6.612;2022-11-15T11:02:01;11.90;99.90
33460;DHT22;19795;53.160;6.612;2022-11-15T11:04:27;12.00;99.90
33460;DHT22;19795;53.160;6.612;2022-11-15T11:06:56;12.10;99.90
33460;DHT22;19795;53.160;6.612;2022-11-15T11:09:33;12.10;99.90
33460;DHT22;19795;53.160;6.612;2022-11-15T11:12:00;12.10;99.90
33460;DHT22;19795;53.160;6.612;2022-11-15T11:14:32;12.10;99.90
33460;DHT22;19795;53.160;6.612;2022-11-15T11:17:16;12.00;99.90
33460;DHT22;19795;53.160;6.612;2022-11-15T11:22:42;12.00;99.90
33460;DHT22;19795;53.160;6.612;2022-11-15T11:25:11;12.10;99.90
33460;DHT22;19795;53.160;6.612;2022-11-15T11:27:43;12.10;99.90
33460;DHT22;19795;53.160;6.612;2022-11-15T11:30:23;12.20;99.90
33460;DHT22;19795;53.160;6.612;2022-11-15T11:33:10;12.30;99.90
33460;DHT22;19795;53.160;6.612;2022-11-15T11:36:11;12.50;99.90
33460;DHT22;19795;53.160;6.612;2022-11-15T11:41:47;13.10;99.90
33460;DHT22;19795;53.160;6.612;2022-11-15T11:44:43;13.20;99.90
33460;DHT22;19795;53.160;6.612;2022-11-15T11:47:16;13.20;99.90
33460;DHT22;19795;53.160;6.612;2022-11-15T11:49:46;13.30;99.90
33460;DHT22;19795;53.160;6.612;2022-11-15T11:55:23;13.30;99.90
33460;DHT22;19795;53.160;6.612;2022-11-15T12:00:54;12.90;99.90
33460;DHT22;19795;53.160;6.612;2022-11-15T12:03:28;12.80;99.90
33460;DHT22;19795;53.160;6.612;2022-11-15T12:06:25;12.70;99.90
33460;DHT22;19795;53.160;6.612;2022-11-15T12:08:59;12.70;99.90
33460;DHT22;19795;53.160;6.612;2022-11-15T12:14:42;12.70;99.90
33460;DHT22;19795;53.160;6.612;2022-11-15T12:17:13;12.50;99.90
33460;DHT22;19795;53.160;6.612;2022-11-15T12:19:41;12.30;99.90
33460;DHT22;19795;53.160;6.612;2022-11-15T12:22:23;12.20;99.90
33460;DHT22;19795;53.160;6.612;2022-11-15T12:28:01;12.20;99.90
33460;DHT22;19795;53.160;6.612;2022-11-15T12:30:42;12.30;99.90
33460;DHT22;19795;53.160;6.612;2022-11-15T12:36:43;12.20;99.90
33460;DHT22;19795;53.160;6.612;2022-11-15T12:38:57;12.30;99.90
33460;DHT22;19795;53.160;6.612;2022-11-15T12:41:34;12.40;99.90
33460;DHT22;19795;53.160;6.612;2022-11-15T12:44:01;12.40;99.90
33460;DHT22;19795;53.160;6.612;2022-11-15T12:48:59;12.20;99.90
33460;DHT22;19795;53.160;6.612;2022-11-15T13:00:04;12.60;99.90
33460;DHT22;19795;53.160;6.612;2022-11-15T13:13:01;13.10;99.90
33460;DHT22;19795;53.160;6.612;2022-11-15T13:17:57;12.90;99.90
33460;DHT22;19795;53.160;6.612;2022-11-15T13:20:31;12.80;99.90
33460;DHT22;19795;53.160;6.612;2022-11-15T13:23:09;12.90;99.90
33460;DHT22;19795;53.160;6.612;2022-11-15T13:28:26;12.80;99.90
33460;DHT22;19795;53.160;6.612;2022-11-15T13:30:56;12.60;99.90
33460;DHT22;19795;53.160;6.612;2022-11-15T13:38:55;12.30;99.90
33460;DHT22;19795;53.160;6.612;2022-11-15T13:41:23;12.20;99.90
33460;DHT22;19795;53.160;6.612;2022-11-15T13:43:51;12.30;99.90
33460;DHT22;19795;53.160;6.612;2022-11-15T13:48:52;12.20;99.90
33460;DHT22;19795;53.160;6.612;2022-11-15T13:51:35;12.20;99.90
33460;DHT22;19795;53.160;6.612;2022-11-15T13:57:09;12.10;99.90
33460;DHT22;19795;53.160;6.612;2022-11-15T13:59:43;12.10;99.90
33460;DHT22;19795;53.160;6.612;2022-11-15T14:02:18;12.10;99.90
33460;DHT22;19795;53.160;6.612;2022-11-15T14:05:15;12.10;99.90
33460;DHT22;19795;53.160;6.612;2022-11-15T14:07:53;12.00;99.90
33460;DHT22;19795;53.160;6.612;2022-11-15T14:10:32;12.00;99.90
33460;DHT22;19795;53.160;6.612;2022-11-15T14:12:59;12.00;99.90
33460;DHT22;19795;53.160;6.612;2022-11-15T14:15:35;11.90;99.90
33460;DHT22;19795;53.160;6.612;2022-11-15T14:18:01;11.90;99.90
33460;DHT22;19795;53.160;6.612;2022-11-15T14:20:36;11.80;99.90
33460;DHT22;19795;53.160;6.612;2022-11-15T14:23:19;11.80;99.90
33460;DHT22;19795;53.160;6.612;2022-11-15T14:25:56;11.80;99.90
33460;DHT22;19795;53.160;6.612;2022-11-15T14:30:48;11.70;99.90
33460;DHT22;19795;53.160;6.612;2022-11-15T14:33:34;11.70;99.90
33460;DHT22;19795;53.160;6.612;2022-11-15T14:36:17;11.70;99.90
33460;DHT22;19795;53.160;6.612;2022-11-15T14:38:46;11.60;99.90
33460;DHT22;19795;53.160;6.612;2022-11-15T14:41:23;11.50;99.90
33460;DHT22;19795;53.160;6.612;2022-11-15T14:43:50;11.40;99.90
33460;DHT22;19795;53.160;6.612;2022-11-15T14:46:16;11.40;99.90
33460;DHT22;19795;53.160;6.612;2022-11-15T14:48:42;11.40;99.90
33460;DHT22;19795;53.160;6.612;2022-11-15T14:51:16;11.30;99.90
33460;DHT22;19795;53.160;6.612;2022-11-15T14:53:43;11.20;99.90
33460;DHT22;19795;53.160;6.612;2022-11-15T14:56:09;11.10;99.90
33460;DHT22;19795;53.160;6.612;2022-11-15T14:58:35;11.10;99.90
33460;DHT22;19795;53.160;6.612;2022-11-15T15:01:23;11.00;99.90
33460;DHT22;19795;53.160;6.612;2022-11-15T15:03:47;10.90;99.90
33460;DHT22;19795;53.160;6.612;2022-11-15T15:06:13;10.80;99.90
33460;DHT22;19795;53.160;6.612;2022-11-15T15:08:40;10.70;99.90
33460;DHT22;19795;53.160;6.612;2022-11-15T15:11:26;10.70;99.90
33460;DHT22;19795;53.160;6.612;2022-11-15T15:13:53;10.60;99.90
33460;DHT22;19795;53.160;6.612;2022-11-15T15:16:20;10.70;99.90
33460;DHT22;19795;53.160;6.612;2022-11-15T15:18:47;10.60;99.90
33460;DHT22;19795;53.160;6.612;2022-11-15T15:21:24;10.50;99.90
33460;DHT22;19795;53.160;6.612;2022-11-15T15:23:51;10.50;99.90
33460;DHT22;19795;53.160;6.612;2022-11-15T15:26:17;10.50;99.90
33460;DHT22;19795;53.160;6.612;2022-11-15T15:28:43;10.50;99.90
33460;DHT22;19795;53.160;6.612;2022-11-15T15:31:09;10.40;99.90
33460;DHT22;19795;53.160;6.612;2022-11-15T15:33:35;10.40;99.90
33460;DHT22;19795;53.160;6.612;2022-11-15T15:36:01;10.40;99.90
33460;DHT22;19795;53.160;6.612;2022-11-15T15:38:27;10.30;99.90
33460;DHT22;19795;53.160;6.612;2022-11-15T15:40:52;10.40;99.90
33460;DHT22;19795;53.160;6.612;2022-11-15T15:43:18;10.30;99.90
33460;DHT22;19795;53.160;6.612;2022-11-15T15:45:44;10.30;99.90
33460;DHT22;19795;53.160;6.612;2022-11-15T15:48:15;10.30;99.90
33460;DHT22;19795;53.160;6.612;2022-11-15T15:50:42;10.20;99.90
33460;DHT22;19795;53.160;6.612;2022-11-15T15:53:12;10.30;99.90
33460;DHT22;19795;53.160;6.612;2022-11-15T15:55:38;10.20;99.90
33460;DHT22;19795;53.160;6.612;2022-11-15T15:58:04;10.20;99.90
33460;DHT22;19795;53.160;6.612;2022-11-15T16:00:30;10.20;99.90
33460;DHT22;19795;53.160;6.612;2022-11-15T16:02:58;10.20;99.90
33460;DHT22;19795;53.160;6.612;2022-11-15T16:05:24;10.20;99.90
33460;DHT22;19795;53.160;6.612;2022-11-15T16:07:50;10.10;99.90
33460;DHT22;19795;53.160;6.612;2022-11-15T16:10:25;10.10;99.90
33460;DHT22;19795;53.160;6.612;2022-11-15T16:12:52;10.10;99.90
33460;DHT22;19795;53.160;6.612;2022-11-15T16:15:18;10.10;99.90
33460;DHT22;19795;53.160;6.612;2022-11-15T16:17:56;10.10;99.90
33460;DHT22;19795;53.160;6.612;2022-11-15T16:20:30;10.10;99.90
33460;DHT22;19795;53.160;6.612;2022-11-15T16:22:56;10.00;99.90
33460;DHT22;19795;53.160;6.612;2022-11-15T16:25:22;10.00;99.90
33460;DHT22;19795;53.160;6.612;2022-11-15T16:27:48;9.90;99.90
33460;DHT22;19795;53.160;6.612;2022-11-15T16:30:16;9.90;99.90
33460;DHT22;19795;53.160;6.612;2022-11-15T16:32:42;10.30;99.90
33460;DHT22;19795;53.160;6.612;2022-11-15T16:35:11;10.00;99.90
33460;DHT22;19795;53.160;6.612;2022-11-15T16:37:38;10.00;99.90
33460;DHT22;19795;53.160;6.612;2022-11-15T16:40:26;9.90;99.90
33460;DHT22;19795;53.160;6.612;2022-11-15T16:42:52;10.10;99.90
33460;DHT22;19795;53.160;6.612;2022-11-15T16:45:18;10.20;99.90
33460;DHT22;19795;53.160;6.612;2022-11-15T16:47:44;10.20;99.90
33460;DHT22;19795;53.160;6.612;2022-11-15T16:50:20;10.20;99.90
33460;DHT22;19795;53.160;6.612;2022-11-15T16:52:54;10.30;99.90
33460;DHT22;19795;53.160;6.612;2022-11-15T16:55:22;10.40;99.90
33460;DHT22;19795;53.160;6.612;2022-11-15T16:57:48;10.30;99.90
33460;DHT22;19795;53.160;6.612;2022-11-15T17:00:15;10.30;99.90
33460;DHT22;19795;53.160;6.612;2022-11-15T17:02:45;10.40;99.90
33460;DHT22;19795;53.160;6.612;2022-11-15T17:05:12;10.40;99.90
33460;DHT22;19795;53.160;6.612;2022-11-15T17:07:39;10.40;99.90
33460;DHT22;19795;53.160;6.612;2022-11-15T17:10:05;10.40;99.90
33460;DHT22;19795;53.160;6.612;2022-11-15T17:12:33;10.40;99.90
33460;DHT22;19795;53.160;6.612;2022-11-15T17:14:58;10.50;99.90
33460;DHT22;19795;53.160;6.612;2022-11-15T17:17:24;10.50;99.90
33460;DHT22;19795;53.160;6.612;2022-11-15T17:19:51;10.50;99.90
33460;DHT22;19795;53.160;6.612;2022-11-15T17:22:18;10.50;99.90
33460;DHT22;19795;53.160;6.612;2022-11-15T17:24:44;10.50;99.90
33460;DHT22;19795;53.160;6.612;2022-11-15T17:27:09;10.50;99.90
33460;DHT22;19795;53.160;6.612;2022-11-15T17:29:35;10.40;99.90
33460;DHT22;19795;53.160;6.612;2022-11-15T17:32:01;10.40;99.90
33460;DHT22;19795;53.160;6.612;2022-11-15T17:34:26;10.40;99.90
33460;DHT22;19795;53.160;6.612;2022-11-15T17:36:52;10.40;99.90
33460;DHT22;19795;53.160;6.612;2022-11-15T17:39:18;10.30;99.90
33460;DHT22;19795;53.160;6.612;2022-11-15T17:41:45;10.30;99.90
33460;DHT22;19795;53.160;6.612;2022-11-15T17:44:11;10.30;99.90
33460;DHT22;19795;53.160;6.612;2022-11-15T17:46:37;10.20;99.90
33460;DHT22;19795;53.160;6.612;2022-11-15T17:49:05;10.30;99.90
33460;DHT22;19795;53.160;6.612;2022-11-15T17:51:31;10.30;99.90
33460;DHT22;19795;53.160;6.612;2022-11-15T17:53:57;10.20;99.90
33460;DHT22;19795;53.160;6.612;2022-11-15T17:56:24;10.20;99.90
33460;DHT22;19795;53.160;6.612;2022-11-15T17:58:52;10.20;99.90
33460;DHT22;19795;53.160;6.612;2022-11-15T18:01:26;10.20;99.90
33460;DHT22;19795;53.160;6.612;2022-11-15T18:03:52;10.20;99.90
33460;DHT22;19795;53.160;6.612;2022-11-15T18:06:19;10.20;99.90
33460;DHT22;19795;53.160;6.612;2022-11-15T18:08:53;10.20;99.90
33460;DHT22;19795;53.160;6.612;2022-11-15T18:11:24;10.20;99.90
33460;DHT22;19795;53.160;6.612;2022-11-15T18:13:54;10.10;99.90
33460;DHT22;19795;53.160;6.612;2022-11-15T18:16:22;10.10;99.90
33460;DHT22;19795;53.160;6.612;2022-11-15T18:18:49;10.10;99.90
33460;DHT22;19795;53.160;6.612;2022-11-15T18:21:17;10.10;99.90
33460;DHT22;19795;53.160;6.612;2022-11-15T18:23:44;10.10;99.90
33460;DHT22;19795;53.160;6.612;2022-11-15T18:26:14;10.10;99.90
33460;DHT22;19795;53.160;6.612;2022-11-15T18:28:42;10.00;99.90
33460;DHT22;19795;53.160;6.612;2022-11-15T18:31:19;10.10;99.90
33460;DHT22;19795;53.160;6.612;2022-11-15T18:33:46;10.20;99.90
33460;DHT22;19795;53.160;6.612;2022-11-15T18:36:14;10.20;99.90
33460;DHT22;19795;53.160;6.612;2022-11-15T18:38:40;10.20;99.90
33460;DHT22;19795;53.160;6.612;2022-11-15T18:41:13;10.20;99.90
33460;DHT22;19795;53.160;6.612;2022-11-15T18:43:40;10.10;99.90
33460;DHT22;19795;53.160;6.612;2022-11-15T18:46:08;10.10;99.90
33460;DHT22;19795;53.160;6.612;2022-11-15T18:48:35;10.20;99.90
33460;DHT22;19795;53.160;6.612;2022-11-15T18:51:06;10.10;99.90
33460;DHT22;19795;53.160;6.612;2022-11-15T18:53:33;10.10;99.90
33460;DHT22;19795;53.160;6.612;2022-11-15T18:56:11;10.10;99.90
33460;DHT22;19795;53.160;6.612;2022-11-15T18:58:39;10.10;99.90
33460;DHT22;19795;53.160;6.612;2022-11-15T19:01:08;10.20;99.90
33460;DHT22;19795;53.160;6.612;2022-11-15T19:03:40;10.20;99.90
33460;DHT22;19795;53.160;6.612;2022-11-15T19:06:13;10.20;99.90
33460;DHT22;19795;53.160;6.612;2022-11-15T19:08:40;10.20;99.90
33460;DHT22;19795;53.160;6.612;2022-11-15T19:11:12;10.10;99.90
33460;DHT22;19795;53.160;6.612;2022-11-15T19:13:38;10.10;99.90
33460;DHT22;19795;53.160;6.612;2022-11-15T19:16:05;10.10;99.90
33460;DHT22;19795;53.160;6.612;2022-11-15T19:18:31;10.20;99.90
33460;DHT22;19795;53.160;6.612;2022-11-15T19:21:02;10.10;99.90
33460;DHT22;19795;53.160;6.612;2022-11-15T19:23:32;10.20;99.90
33460;DHT22;19795;53.160;6.612;2022-11-15T19:25:59;10.20;99.90
33460;DHT22;19795;53.160;6.612;2022-11-15T19:28:26;10.20;99.90
33460;DHT22;19795;53.160;6.612;2022-11-15T19:30:53;10.20;99.90
33460;DHT22;19795;53.160;6.612;2022-11-15T19:33:19;10.20;99.90
33460;DHT22;19795;53.160;6.612;2022-11-15T19:35:46;10.20;99.90
33460;DHT22;19795;53.160;6.612;2022-11-15T19:38:12;10.10;99.90
33460;DHT22;19795;53.160;6.612;2022-11-15T19:40:39;10.10;99.90
33460;DHT22;19795;53.160;6.612;2022-11-15T19:43:04;10.10;99.90
33460;DHT22;19795;53.160;6.612;2022-11-15T19:45:30;10.20;99.90
33460;DHT22;19795;53.160;6.612;2022-11-15T19:47:57;10.20;99.90
33460;DHT22;19795;53.160;6.612;2022-11-15T19:50:23;10.00;99.90
33460;DHT22;19795;53.160;6.612;2022-11-15T19:52:49;10.00;99.90
33460;DHT22;19795;53.160;6.612;2022-11-15T19:55:14;10.00;99.90
33460;DHT22;19795;53.160;6.612;2022-11-15T19:57:40;10.00;99.90
